Brewster, Massachusetts
Current Conditions -  °F | °C
As of 1:52 PM on Tuesday 27 Jan 2015 (Local Time) from KCQX Reporting Station
Moderate Snow Moderate Snow  
Wind Chill: 11°   Ceiling: 600
Heat Index: 25°   Visibility: 0.25mi
Dew Point: 23°   Wind: 20mph
Humidity: 92%   Direction: 340°NNW
Pressure: 29.21"   Gusts: 46mph
Location:  41.76°N, 70.08°W
Report Text: KCQX 271852Z AUTO 34017G40KT 310V010 1/4SM SN FZFG VV006 M04/M05 A2921 RMK AO2 PK WND 34040/1850 SLP893 P0011 T10391050 $
Loading
Personal Weather Stations






























Interactive Weather Map New forecast layout! Learn more

10-Day Weather Forecast

Advertisements
Track Severe Weather on mobile